createdAt,value
2019-05-15T00:00:09.381Z,1023.97
2019-05-15T00:01:09.169Z,1024.05
2019-05-15T00:02:10.852Z,1024.02
2019-05-15T00:03:09.145Z,1024.05
2019-05-15T00:04:09.430Z,1024.03
2019-05-15T00:05:09.269Z,1024.03
2019-05-15T00:06:09.111Z,1023.99
2019-05-15T00:07:09.099Z,1024.01
2019-05-15T00:08:09.627Z,1023.96
2019-05-15T00:09:09.085Z,1023.96
2019-05-15T00:10:09.166Z,1023.85
2019-05-15T00:11:09.081Z,1023.85
2019-05-15T00:12:09.050Z,1023.89
2019-05-15T00:13:09.508Z,1023.86
2019-05-15T00:14:09.028Z,1023.88
2019-05-15T00:15:09.574Z,1023.87
2019-05-15T00:16:09.028Z,1023.88
2019-05-15T00:17:08.996Z,1023.87
2019-05-15T00:18:09.009Z,1023.86
2019-05-15T00:19:08.987Z,1023.86
2019-05-15T00:20:09.926Z,1023.84
2019-05-15T00:21:09.485Z,1023.83
2019-05-15T00:22:08.945Z,1023.82
2019-05-15T00:23:08.937Z,1023.85
2019-05-15T00:24:13.064Z,1023.84
2019-05-15T00:25:09.469Z,1023.87
2019-05-15T00:26:09.425Z,1023.83
2019-05-15T00:27:08.894Z,1023.80
2019-05-15T00:28:09.682Z,1023.84
2019-05-15T00:29:15.649Z,1023.84
2019-05-15T00:30:09.861Z,1023.84
2019-05-15T00:31:09.229Z,1023.84
2019-05-15T00:32:09.228Z,1023.79
2019-05-15T00:33:09.346Z,1023.78
2019-05-15T00:34:12.804Z,1023.78
2019-05-15T00:35:09.577Z,1023.77
2019-05-15T00:36:08.925Z,1023.79
2019-05-15T00:37:09.111Z,1023.80
2019-05-15T00:38:09.465Z,1023.79
2019-05-15T00:39:08.768Z,1023.77
2019-05-15T00:40:09.132Z,1023.79
2019-05-15T00:41:09.496Z,1023.76
2019-05-15T00:42:08.758Z,1023.75
2019-05-15T00:43:09.059Z,1023.77
2019-05-15T00:44:09.333Z,1023.81
2019-05-15T00:45:09.372Z,1023.78
2019-05-15T00:46:09.371Z,1023.80
2019-05-15T00:47:10.436Z,1023.78
2019-05-15T00:48:09.077Z,1023.81
2019-05-15T00:49:08.846Z,1023.73
2019-05-15T00:50:08.978Z,1023.78
2019-05-15T00:51:08.641Z,1023.76
2019-05-15T00:52:12.104Z,1023.77
2019-05-15T00:53:08.827Z,1023.80
2019-05-15T00:54:08.614Z,1023.79
2019-05-15T00:55:08.968Z,1023.76
2019-05-15T00:56:09.038Z,1023.73
2019-05-15T00:57:08.682Z,1023.76
2019-05-15T00:58:08.920Z,1023.73
2019-05-15T00:59:08.560Z,1023.76
2019-05-15T01:00:08.545Z,1023.75
2019-05-15T01:01:08.542Z,1023.63
2019-05-15T01:02:08.817Z,1023.65
2019-05-15T01:03:08.924Z,1023.66
2019-05-15T01:04:08.510Z,1023.67
2019-05-15T01:05:08.551Z,1023.65
2019-05-15T01:06:08.606Z,1023.66
2019-05-15T01:07:08.515Z,1023.61
2019-05-15T01:08:08.492Z,1023.58
2019-05-15T01:09:08.535Z,1023.61
2019-05-15T01:10:09.845Z,1023.59
2019-05-15T01:11:09.132Z,1023.57
2019-05-15T01:12:09.042Z,1023.54
2019-05-15T01:13:08.715Z,1023.55
2019-05-15T01:14:12.127Z,1023.56
2019-05-15T01:15:09.191Z,1023.53
2019-05-15T01:16:09.138Z,1023.56
2019-05-15T01:17:09.132Z,1023.54
2019-05-15T01:18:09.329Z,1023.53
2019-05-15T01:19:09.241Z,1023.56
2019-05-15T01:20:08.666Z,1023.50
2019-05-15T01:21:08.584Z,1023.58
2019-05-15T01:22:08.838Z,1023.55
2019-05-15T01:23:09.059Z,1023.52
2019-05-15T01:24:08.515Z,1023.56
2019-05-15T01:25:08.786Z,1023.56
2019-05-15T01:26:08.501Z,1023.57
2019-05-15T01:27:09.128Z,1023.56
2019-05-15T01:28:09.334Z,1023.58
2019-05-15T01:29:09.103Z,1023.56
2019-05-15T01:30:08.957Z,1023.60
2019-05-15T01:31:08.693Z,1023.56
2019-05-15T01:32:08.530Z,1023.52
2019-05-15T01:33:08.478Z,1023.59
2019-05-15T01:34:08.989Z,1023.59
2019-05-15T01:35:09.488Z,1023.57
2019-05-15T01:36:08.614Z,1023.58
2019-05-15T01:37:08.630Z,1023.54
2019-05-15T01:38:08.456Z,1023.52
2019-05-15T01:39:08.156Z,1023.51
2019-05-15T01:40:08.775Z,1023.47
2019-05-15T01:41:09.751Z,1023.49
2019-05-15T01:42:08.423Z,1023.55
2019-05-15T01:43:09.078Z,1023.52
2019-05-15T01:44:08.785Z,1023.52
2019-05-15T01:45:08.674Z,1023.44
2019-05-15T01:46:08.558Z,1023.48
2019-05-15T01:47:08.550Z,1023.47
2019-05-15T01:48:08.265Z,1023.53
2019-05-15T01:49:08.118Z,1023.48
2019-05-15T01:50:09.336Z,1023.46
2019-05-15T01:51:09.288Z,1023.52
2019-05-15T01:52:08.118Z,1023.45
2019-05-15T01:53:08.415Z,1023.50
2019-05-15T01:54:09.158Z,1023.49
2019-05-15T01:55:09.172Z,1023.42
2019-05-15T01:56:08.580Z,1023.50
2019-05-15T01:57:09.274Z,1023.48
2019-05-15T01:58:09.040Z,1023.47
2019-05-15T01:59:08.669Z,1023.53
2019-05-15T02:00:08.697Z,1023.52
2019-05-15T02:01:08.313Z,1023.48
2019-05-15T02:02:09.631Z,1023.54
2019-05-15T02:03:09.790Z,1023.52
2019-05-15T02:04:08.347Z,1023.53
2019-05-15T02:05:08.718Z,1023.50
2019-05-15T02:06:15.410Z,1023.50
2019-05-15T02:07:08.328Z,1023.51
2019-05-15T02:08:08.317Z,1023.55
2019-05-15T02:09:08.400Z,1023.50
2019-05-15T02:10:09.175Z,1023.46
2019-05-15T02:11:09.208Z,1023.47
2019-05-15T02:12:08.699Z,1023.50
2019-05-15T02:13:08.595Z,1023.46
2019-05-15T02:14:08.355Z,1023.53
2019-05-15T02:15:08.533Z,1023.47
2019-05-15T02:16:08.385Z,1023.48
2019-05-15T02:17:08.484Z,1023.44
2019-05-15T02:18:08.382Z,1023.40
2019-05-15T02:19:08.967Z,1023.41
2019-05-15T02:20:08.674Z,1023.38
2019-05-15T02:21:10.244Z,1023.34
2019-05-15T02:22:08.383Z,1023.35
2019-05-15T02:23:11.586Z,1023.33
2019-05-15T02:24:08.023Z,1023.33
2019-05-15T02:25:08.609Z,1023.37
2019-05-15T02:26:08.068Z,1023.33
2019-05-15T02:27:08.999Z,1023.35
2019-05-15T02:28:09.437Z,1023.32
2019-05-15T02:29:08.350Z,1023.37
2019-05-15T02:30:18.284Z,1023.42
2019-05-15T02:31:10.387Z,1023.36
2019-05-15T02:32:10.220Z,1023.35
2019-05-15T02:33:10.703Z,1023.37
2019-05-15T02:34:10.111Z,1023.37
2019-05-15T02:35:10.057Z,1023.38
2019-05-15T02:36:09.751Z,1023.37
2019-05-15T02:37:08.935Z,1023.39
2019-05-15T02:38:10.114Z,1023.43
2019-05-15T02:39:08.981Z,1023.45
2019-05-15T02:40:09.869Z,1023.42
2019-05-15T02:41:09.914Z,1023.39
2019-05-15T02:42:09.928Z,1023.38
2019-05-15T02:43:10.048Z,1023.42
2019-05-15T02:44:10.642Z,1023.42
2019-05-15T02:45:09.956Z,1023.42
2019-05-15T02:46:10.109Z,1023.38
2019-05-15T02:47:09.230Z,1023.41
2019-05-15T02:48:08.937Z,1023.39
2019-05-15T02:49:08.772Z,1023.38
2019-05-15T02:50:10.717Z,1023.37
2019-05-15T02:51:09.700Z,1023.35
2019-05-15T02:52:09.743Z,1023.39
2019-05-15T02:53:09.787Z,1023.35
2019-05-15T02:54:10.296Z,1023.36
2019-05-15T02:55:09.406Z,1023.38
2019-05-15T02:56:09.292Z,1023.42
2019-05-15T02:57:09.846Z,1023.37
2019-05-15T02:58:10.015Z,1023.40
2019-05-15T02:59:09.218Z,1023.40
2019-05-15T03:00:10.690Z,1023.40
2019-05-15T03:01:09.279Z,1023.47
2019-05-15T03:02:10.077Z,1023.44
2019-05-15T03:03:09.493Z,1023.47
2019-05-15T03:04:09.284Z,1023.46
2019-05-15T03:05:09.319Z,1023.49
2019-05-15T03:06:10.001Z,1023.45
2019-05-15T03:07:09.676Z,1023.45
2019-05-15T03:08:09.522Z,1023.40
2019-05-15T03:09:09.460Z,1023.39
2019-05-15T03:10:09.414Z,1023.39
2019-05-15T03:11:09.774Z,1023.38
2019-05-15T03:12:09.103Z,1023.43
2019-05-15T03:13:09.689Z,1023.49
2019-05-15T03:14:09.239Z,1023.38
2019-05-15T03:15:09.642Z,1023.44
2019-05-15T03:16:09.998Z,1023.38
2019-05-15T03:17:09.809Z,1023.42
2019-05-15T03:18:09.571Z,1023.40
2019-05-15T03:19:09.996Z,1023.42
2019-05-15T03:20:10.421Z,1023.47
2019-05-15T03:21:09.638Z,1023.44
2019-05-15T03:22:09.748Z,1023.49
2019-05-15T03:23:09.640Z,1023.51
2019-05-15T03:24:09.827Z,1023.46
2019-05-15T03:25:10.518Z,1023.43
2019-05-15T03:26:08.883Z,1023.54
2019-05-15T03:27:09.159Z,1023.47
2019-05-15T03:28:10.107Z,1023.53
2019-05-15T03:29:09.772Z,1023.50
2019-05-15T03:30:12.251Z,1023.53
2019-05-15T03:31:26.595Z,1023.52
2019-05-15T03:32:22.926Z,1023.56
2019-05-15T03:33:15.776Z,1023.51
2019-05-15T03:34:19.256Z,1023.56
2019-05-15T03:35:13.763Z,1023.51
2019-05-15T03:36:13.330Z,1023.50
2019-05-15T03:37:12.301Z,1023.53
2019-05-15T03:38:09.237Z,1023.55
2019-05-15T03:39:09.544Z,1023.51
2019-05-15T03:40:09.843Z,1023.47
2019-05-15T03:41:09.888Z,1023.50
2019-05-15T03:42:09.633Z,1023.53
2019-05-15T03:43:09.167Z,1023.57
2019-05-15T03:44:09.521Z,1023.58
2019-05-15T03:45:09.653Z,1023.56
2019-05-15T03:46:09.053Z,1023.61
2019-05-15T03:47:09.272Z,1023.58
2019-05-15T03:48:09.366Z,1023.59
2019-05-15T03:49:08.627Z,1023.60
2019-05-15T03:50:09.008Z,1023.55
2019-05-15T03:51:09.188Z,1023.57
2019-05-15T03:52:09.772Z,1023.55
2019-05-15T03:53:09.807Z,1023.58
2019-05-15T03:54:09.303Z,1023.65
2019-05-15T03:55:10.115Z,1023.61
2019-05-15T03:56:09.734Z,1023.62
2019-05-15T03:57:09.571Z,1023.65
2019-05-15T03:58:09.876Z,1023.67
2019-05-15T03:59:09.375Z,1023.61
2019-05-15T04:00:09.338Z,1023.62
2019-05-15T04:01:27.875Z,1023.67
2019-05-15T04:02:08.667Z,1023.68
2019-05-15T04:03:10.262Z,1023.68
2019-05-15T04:04:09.440Z,1023.67
2019-05-15T04:05:06.603Z,1023.69
2019-05-15T04:06:09.689Z,1023.65
2019-05-15T04:07:09.229Z,1023.62
2019-05-15T04:08:10.381Z,1023.65
2019-05-15T04:09:09.331Z,1023.61
2019-05-15T04:10:09.552Z,1023.60
2019-05-15T04:11:09.117Z,1023.59
2019-05-15T04:12:09.331Z,1023.64
2019-05-15T04:13:09.369Z,1023.63
2019-05-15T04:14:09.897Z,1023.66
2019-05-15T04:15:09.793Z,1023.64
2019-05-15T04:16:09.993Z,1023.61
2019-05-15T04:17:09.073Z,1023.64
2019-05-15T04:18:09.271Z,1023.67
2019-05-15T04:19:09.412Z,1023.63
2019-05-15T04:20:09.606Z,1023.66
2019-05-15T04:21:09.033Z,1023.68
2019-05-15T04:22:09.222Z,1023.62
2019-05-15T04:23:09.770Z,1023.67
2019-05-15T04:24:09.273Z,1023.67
2019-05-15T04:25:09.390Z,1023.64
2019-05-15T04:26:09.189Z,1023.69
2019-05-15T04:27:10.482Z,1023.63
2019-05-15T04:28:09.393Z,1023.63
2019-05-15T04:29:09.501Z,1023.65
2019-05-15T04:30:10.556Z,1023.66
2019-05-15T04:31:09.254Z,1023.62
2019-05-15T04:32:07.203Z,1023.61
2019-05-15T04:33:09.085Z,1023.62
2019-05-15T04:34:08.941Z,1023.61
2019-05-15T04:35:09.190Z,1023.63
2019-05-15T04:36:09.484Z,1023.63
2019-05-15T04:37:09.196Z,1023.60
2019-05-15T04:38:09.059Z,1023.66
2019-05-15T04:39:09.553Z,1023.64
2019-05-15T04:40:09.245Z,1023.66
2019-05-15T04:41:09.452Z,1023.61
2019-05-15T04:42:08.208Z,1023.62
2019-05-15T04:43:06.184Z,1023.62
2019-05-15T04:44:06.195Z,1023.58
2019-05-15T04:45:09.657Z,1023.58
2019-05-15T04:46:09.519Z,1023.56
2019-05-15T04:47:09.442Z,1023.56
2019-05-15T04:48:09.528Z,1023.56
2019-05-15T04:49:09.112Z,1023.57
2019-05-15T04:50:08.810Z,1023.58
2019-05-15T04:51:09.455Z,1023.53
2019-05-15T04:52:06.079Z,1023.55
2019-05-15T04:53:06.085Z,1023.53
2019-05-15T04:54:09.290Z,1023.53
2019-05-15T04:55:09.687Z,1023.54
2019-05-15T04:56:09.203Z,1023.54
2019-05-15T04:57:09.000Z,1023.58
2019-05-15T04:58:06.024Z,1023.54
2019-05-15T04:59:06.022Z,1023.58
2019-05-15T05:00:09.203Z,1023.50
2019-05-15T05:01:09.148Z,1023.51
2019-05-15T05:02:24.195Z,1023.54
2019-05-15T05:03:09.861Z,1023.50
2019-05-15T05:04:05.952Z,1023.59
2019-05-15T05:05:05.953Z,1023.55
2019-05-15T05:06:05.933Z,1023.59
2019-05-15T05:07:05.915Z,1023.61
2019-05-15T05:08:09.089Z,1023.61
2019-05-15T05:09:08.935Z,1023.63
2019-05-15T05:10:09.169Z,1023.59
2019-05-15T05:11:05.877Z,1023.62
2019-05-15T05:12:08.406Z,1023.58
2019-05-15T05:13:08.778Z,1023.55
2019-05-15T05:14:08.282Z,1023.53
2019-05-15T05:15:08.254Z,1023.56
2019-05-15T05:16:05.845Z,1023.55
2019-05-15T05:17:08.811Z,1023.57
2019-05-15T05:18:05.825Z,1023.54
2019-05-15T05:19:08.726Z,1023.59
2019-05-15T05:20:08.059Z,1023.53
2019-05-15T05:21:07.738Z,1023.53
2019-05-15T05:22:07.732Z,1023.54
2019-05-15T05:23:08.406Z,1023.53
2019-05-15T05:24:07.841Z,1023.56
2019-05-15T05:25:07.843Z,1023.55
2019-05-15T05:26:08.818Z,1023.56
2019-05-15T05:27:08.762Z,1023.52
2019-05-15T05:28:05.715Z,1023.50
2019-05-15T05:29:05.682Z,1023.53
2019-05-15T05:30:08.159Z,1023.51
2019-05-15T05:31:08.158Z,1023.50
2019-05-15T05:32:05.652Z,1023.53
2019-05-15T05:33:05.640Z,1023.56
2019-05-15T05:34:05.642Z,1023.56
2019-05-15T05:35:08.200Z,1023.58
2019-05-15T05:36:07.706Z,1023.57
2019-05-15T05:37:07.710Z,1023.58
2019-05-15T05:38:07.747Z,1023.64
2019-05-15T05:39:05.608Z,1023.59
2019-05-15T05:40:07.885Z,1023.59
2019-05-15T05:41:07.958Z,1023.55
2019-05-15T05:42:07.783Z,1023.58
2019-05-15T05:43:05.555Z,1023.56
2019-05-15T05:44:05.519Z,1023.53
2019-05-15T05:45:05.652Z,1023.56
2019-05-15T05:46:05.497Z,1023.59
2019-05-15T05:47:05.560Z,1023.64
2019-05-15T05:48:05.530Z,1023.64
2019-05-15T05:49:07.971Z,1023.61
2019-05-15T05:50:07.779Z,1023.62
2019-05-15T05:51:05.462Z,1023.60
2019-05-15T05:52:05.438Z,1023.70
2019-05-15T05:53:05.422Z,1023.71
2019-05-15T05:54:05.433Z,1023.59
2019-05-15T05:55:05.415Z,1023.65
2019-05-15T05:56:05.412Z,1023.55
2019-05-15T05:57:05.393Z,1023.55
2019-05-15T05:58:08.035Z,1023.55
2019-05-15T05:59:05.385Z,1023.57
2019-05-15T06:00:05.348Z,1023.62
2019-05-15T06:01:05.366Z,1023.60
2019-05-15T06:02:08.025Z,1023.59
2019-05-15T06:03:08.493Z,1023.57
2019-05-15T06:04:05.305Z,1023.52
2019-05-15T06:05:07.775Z,1023.55
2019-05-15T06:06:05.334Z,1023.48
2019-05-15T06:07:10.033Z,1023.53
2019-05-15T06:08:08.051Z,1023.54
2019-05-15T06:09:05.255Z,1023.52
2019-05-15T06:10:05.249Z,1023.46
2019-05-15T06:11:05.253Z,1023.53
2019-05-15T06:12:05.220Z,1023.50
2019-05-15T06:13:08.497Z,1023.51
2019-05-15T06:14:05.216Z,1023.54
2019-05-15T06:15:05.190Z,1023.55
2019-05-15T06:16:05.200Z,1023.50
2019-05-15T06:17:05.187Z,1023.40
2019-05-15T06:18:05.158Z,1023.46
2019-05-15T06:19:05.154Z,1023.47
2019-05-15T06:20:05.138Z,1023.45
2019-05-15T06:21:05.183Z,1023.42
2019-05-15T06:22:05.137Z,1023.46
2019-05-15T06:23:05.120Z,1023.39
2019-05-15T06:24:05.994Z,1023.45
2019-05-15T06:25:05.306Z,1023.47
2019-05-15T06:26:05.115Z,1023.38
2019-05-15T06:27:05.067Z,1023.47
2019-05-15T06:28:05.064Z,1023.40
2019-05-15T06:29:05.043Z,1023.39
2019-05-15T06:30:05.030Z,1023.47
2019-05-15T06:31:05.067Z,1023.44
2019-05-15T06:32:05.023Z,1023.39
2019-05-15T06:33:10.653Z,1023.42
2019-05-15T06:34:08.162Z,1023.38
2019-05-15T06:35:04.989Z,1023.38
2019-05-15T06:36:04.995Z,1023.36
2019-05-15T06:37:05.005Z,1023.42
2019-05-15T06:38:04.961Z,1023.37
2019-05-15T06:39:04.938Z,1023.38
2019-05-15T06:40:04.931Z,1023.37
2019-05-15T06:41:04.914Z,1023.35
2019-05-15T06:42:04.925Z,1023.29
2019-05-15T06:43:04.897Z,1023.23
2019-05-15T06:44:04.906Z,1023.27
2019-05-15T06:45:04.873Z,1023.29
2019-05-15T06:46:04.867Z,1023.26
2019-05-15T06:47:04.872Z,1023.27
2019-05-15T06:48:04.860Z,1023.24
2019-05-15T06:49:04.836Z,1023.27
2019-05-15T06:50:04.829Z,1023.24
2019-05-15T06:51:04.807Z,1023.27
2019-05-15T06:52:04.819Z,1023.27
2019-05-15T06:53:07.649Z,1023.30
2019-05-15T06:54:05.782Z,1023.29
2019-05-15T06:55:04.774Z,1023.28
2019-05-15T06:56:04.786Z,1023.31
2019-05-15T06:57:04.785Z,1023.28
2019-05-15T06:58:04.734Z,1023.33
2019-05-15T06:59:04.730Z,1023.31
2019-05-15T07:00:04.717Z,1023.31
2019-05-15T07:01:04.716Z,1023.34
2019-05-15T07:02:04.691Z,1023.37
2019-05-15T07:03:16.767Z,1023.35
2019-05-15T07:04:05.671Z,1023.31
2019-05-15T07:05:04.660Z,1023.28
2019-05-15T07:06:04.667Z,1023.27
2019-05-15T07:07:04.643Z,1023.32
2019-05-15T07:08:04.648Z,1023.31
2019-05-15T07:09:04.619Z,1023.33
2019-05-15T07:10:04.622Z,1023.32
2019-05-15T07:11:04.594Z,1023.34
2019-05-15T07:12:04.588Z,1023.26
2019-05-15T07:13:04.619Z,1023.25
2019-05-15T07:14:04.578Z,1023.25
2019-05-15T07:15:04.583Z,1023.20
2019-05-15T07:16:04.542Z,1023.21
2019-05-15T07:17:04.532Z,1023.21
2019-05-15T07:18:04.529Z,1023.13
2019-05-15T07:19:04.530Z,1023.14
2019-05-15T07:20:04.542Z,1023.16
2019-05-15T07:21:04.493Z,1023.16
2019-05-15T07:22:04.479Z,1023.15
2019-05-15T07:23:04.471Z,1023.15
2019-05-15T07:24:04.481Z,1023.18
2019-05-15T07:25:04.569Z,1023.22
2019-05-15T07:26:04.451Z,1023.17
2019-05-15T07:27:04.427Z,1023.18
2019-05-15T07:28:04.415Z,1023.17
2019-05-15T07:29:04.430Z,1023.21
2019-05-15T07:30:04.418Z,1023.15
2019-05-15T07:31:04.385Z,1023.17
2019-05-15T07:32:04.383Z,1023.07
2019-05-15T07:33:04.362Z,1023.09
2019-05-15T07:34:04.383Z,1023.09
2019-05-15T07:35:04.342Z,1023.13
2019-05-15T07:36:04.335Z,1023.11
2019-05-15T07:37:04.342Z,1023.12
2019-05-15T07:38:04.310Z,1023.06
2019-05-15T07:39:04.342Z,1023.06
2019-05-15T07:40:04.290Z,1023.03
2019-05-15T07:41:04.693Z,1022.98
2019-05-15T07:42:04.266Z,1022.95
2019-05-15T07:43:04.267Z,1022.96
2019-05-15T07:44:04.259Z,1022.99
2019-05-15T07:45:04.258Z,1022.93
2019-05-15T07:46:04.227Z,1023.00
2019-05-15T07:47:04.217Z,1022.94
2019-05-15T07:48:04.204Z,1022.94
2019-05-15T07:49:04.204Z,1023.00
2019-05-15T07:50:04.219Z,1022.97
2019-05-15T07:51:04.172Z,1022.98
2019-05-15T07:52:04.162Z,1022.99
2019-05-15T07:53:04.154Z,1022.92
2019-05-15T07:54:04.141Z,1022.96
2019-05-15T07:55:04.170Z,1022.95
2019-05-15T07:56:04.143Z,1022.97
2019-05-15T07:57:04.111Z,1022.97
2019-05-15T07:58:04.108Z,1023.03
2019-05-15T07:59:04.093Z,1022.99
2019-05-15T08:00:04.080Z,1022.94
2019-05-15T08:01:05.509Z,1022.96
2019-05-15T08:02:04.055Z,1022.97
2019-05-15T08:03:04.047Z,1022.95
2019-05-15T08:04:22.709Z,1022.96
2019-05-15T08:05:11.572Z,1022.90
2019-05-15T08:06:04.038Z,1022.87
2019-05-15T08:07:11.565Z,1022.94
2019-05-15T08:08:04.029Z,1022.89
2019-05-15T08:09:03.991Z,1022.82
2019-05-15T08:10:03.977Z,1022.83
2019-05-15T08:11:17.480Z,1022.77
2019-05-15T08:12:04.950Z,1022.84
2019-05-15T08:13:11.495Z,1022.84
2019-05-15T08:14:03.936Z,1022.84
2019-05-15T08:15:03.923Z,1022.83
2019-05-15T08:16:03.953Z,1022.81
2019-05-15T08:17:03.907Z,1022.80
2019-05-15T08:18:09.191Z,1022.79
2019-05-15T08:19:04.885Z,1022.75
2019-05-15T08:20:03.869Z,1022.72
2019-05-15T08:21:03.857Z,1022.74
2019-05-15T08:22:03.874Z,1022.74
2019-05-15T08:23:03.893Z,1022.74
2019-05-15T08:24:03.829Z,1022.68
2019-05-15T08:25:06.752Z,1022.57
2019-05-15T08:26:03.807Z,1022.59
2019-05-15T08:27:03.820Z,1022.63
2019-05-15T08:28:03.784Z,1022.57
2019-05-15T08:29:03.780Z,1022.60
2019-05-15T08:30:03.768Z,1022.62
2019-05-15T08:31:06.545Z,1022.62
2019-05-15T08:32:04.786Z,1022.60
2019-05-15T08:33:03.773Z,1022.60
2019-05-15T08:34:13.564Z,1022.59
2019-05-15T08:35:04.710Z,1022.60
2019-05-15T08:36:03.698Z,1022.57
2019-05-15T08:37:03.706Z,1022.54
2019-05-15T08:38:03.681Z,1022.50
2019-05-15T08:39:03.665Z,1022.47
2019-05-15T08:40:03.673Z,1022.45
2019-05-15T08:41:03.645Z,1022.49
2019-05-15T08:42:03.657Z,1022.50
2019-05-15T08:43:03.634Z,1022.47
2019-05-15T08:44:03.623Z,1022.43
2019-05-15T08:45:03.603Z,1022.42
2019-05-15T08:46:03.601Z,1022.40
2019-05-15T08:47:03.583Z,1022.37
2019-05-15T08:48:03.594Z,1022.37
2019-05-15T08:49:03.612Z,1022.34
2019-05-15T08:50:03.551Z,1022.38
2019-05-15T08:51:03.558Z,1022.33
2019-05-15T08:52:03.565Z,1022.29
2019-05-15T08:53:03.572Z,1022.30
2019-05-15T08:54:03.544Z,1022.24
2019-05-15T08:55:03.500Z,1022.24
2019-05-15T08:56:03.496Z,1022.29
2019-05-15T08:57:03.485Z,1022.27
2019-05-15T08:58:08.461Z,1022.27
2019-05-15T08:59:04.458Z,1022.30
2019-05-15T09:00:03.469Z,1022.27
2019-05-15T09:01:03.456Z,1022.25
2019-05-15T09:02:03.430Z,1022.21
2019-05-15T09:03:03.408Z,1022.26
2019-05-15T09:04:03.414Z,1022.19
2019-05-15T09:05:03.389Z,1022.22
2019-05-15T09:06:03.381Z,1022.16
2019-05-15T09:07:03.371Z,1022.19
2019-05-15T09:08:03.366Z,1022.18
2019-05-15T09:09:03.384Z,1022.16
2019-05-15T09:10:03.376Z,1022.18
2019-05-15T09:11:03.333Z,1022.08
2019-05-15T09:12:03.331Z,1022.07
2019-05-15T09:13:03.321Z,1022.08
2019-05-15T09:14:03.317Z,1022.10
2019-05-15T09:15:03.275Z,1022.08
2019-05-15T09:16:03.274Z,1022.10
2019-05-15T09:17:03.258Z,1022.09
2019-05-15T09:18:14.849Z,1022.01
2019-05-15T09:19:04.307Z,1022.00
2019-05-15T09:20:03.223Z,1021.96
2019-05-15T09:21:03.254Z,1021.94
2019-05-15T09:22:03.211Z,1021.94
2019-05-15T09:23:03.192Z,1022.03
2019-05-15T09:24:03.198Z,1022.03
2019-05-15T09:25:03.173Z,1022.00
2019-05-15T09:26:03.155Z,1021.97
2019-05-15T09:27:03.165Z,1021.99
2019-05-15T09:28:03.149Z,1021.97
2019-05-15T09:29:03.142Z,1021.88
2019-05-15T09:30:03.114Z,1021.88
2019-05-15T09:31:03.106Z,1021.88
2019-05-15T09:32:03.101Z,1021.84
2019-05-15T09:33:03.092Z,1021.82
2019-05-15T09:34:03.093Z,1021.81
2019-05-15T09:35:03.067Z,1021.88
2019-05-15T09:36:03.056Z,1021.82
2019-05-15T09:37:03.057Z,1021.83
2019-05-15T09:38:03.036Z,1021.81
2019-05-15T09:39:03.050Z,1021.74
2019-05-15T09:40:03.018Z,1021.73
2019-05-15T09:41:03.001Z,1021.71
2019-05-15T09:42:02.994Z,1021.74
2019-05-15T09:43:02.986Z,1021.70
2019-05-15T09:44:03.028Z,1021.76
2019-05-15T09:45:02.989Z,1021.75
2019-05-15T09:46:02.956Z,1021.69
2019-05-15T09:47:02.938Z,1021.71
2019-05-15T09:48:02.940Z,1021.70
2019-05-15T09:49:02.922Z,1021.70
2019-05-15T09:50:02.932Z,1021.69
2019-05-15T09:51:02.907Z,1021.69
2019-05-15T09:52:02.884Z,1021.65
2019-05-15T09:53:02.899Z,1021.64
2019-05-15T09:54:02.867Z,1021.60
2019-05-15T09:55:02.896Z,1021.66
2019-05-15T09:56:02.875Z,1021.63
2019-05-15T09:57:02.842Z,1021.61
2019-05-15T09:58:02.825Z,1021.63
2019-05-15T09:59:02.805Z,1021.62
2019-05-15T10:00:02.793Z,1021.66
2019-05-15T10:01:02.856Z,1021.66
2019-05-15T10:02:02.784Z,1021.72
2019-05-15T10:03:02.781Z,1021.68
2019-05-15T10:04:02.769Z,1021.68
2019-05-15T10:05:06.490Z,1021.65
2019-05-15T10:06:03.747Z,1021.59
2019-05-15T10:07:02.725Z,1021.63
2019-05-15T10:08:02.747Z,1021.56
2019-05-15T10:09:02.704Z,1021.51
2019-05-15T10:10:02.695Z,1021.55
2019-05-15T10:11:02.702Z,1021.50
2019-05-15T10:12:02.670Z,1021.48
2019-05-15T10:13:02.696Z,1021.54
2019-05-15T10:14:02.652Z,1021.54
2019-05-15T10:15:02.643Z,1021.54
2019-05-15T10:16:02.654Z,1021.52
2019-05-15T10:17:02.640Z,1021.47
2019-05-15T10:18:02.606Z,1021.41
2019-05-15T10:19:02.610Z,1021.50
2019-05-15T10:20:02.610Z,1021.42
2019-05-15T10:21:02.569Z,1021.41
2019-05-15T10:22:02.583Z,1021.41
2019-05-15T10:23:02.549Z,1021.35
2019-05-15T10:24:02.553Z,1021.40
2019-05-15T10:25:02.545Z,1021.42
2019-05-15T10:26:02.532Z,1021.49
2019-05-15T10:27:02.530Z,1021.48
2019-05-15T10:28:02.513Z,1021.48
2019-05-15T10:29:02.488Z,1021.44
2019-05-15T10:30:02.478Z,1021.42
2019-05-15T10:31:02.476Z,1021.35
2019-05-15T10:32:02.472Z,1021.31
2019-05-15T10:33:02.483Z,1021.32
2019-05-15T10:34:02.448Z,1021.23
2019-05-15T10:35:02.430Z,1021.27
2019-05-15T10:36:02.412Z,1021.31
2019-05-15T10:37:02.423Z,1021.26
2019-05-15T10:38:02.397Z,1021.23
2019-05-15T10:39:02.471Z,1021.16
2019-05-15T10:40:02.376Z,1021.20
2019-05-15T10:41:08.696Z,1021.19
2019-05-15T10:42:03.373Z,1021.19
2019-05-15T10:43:02.374Z,1021.15
2019-05-15T10:44:02.332Z,1021.07
2019-05-15T10:45:02.338Z,1021.06
2019-05-15T10:46:02.318Z,1021.08
2019-05-15T10:47:02.293Z,1021.04
2019-05-15T10:48:02.320Z,1021.05
2019-05-15T10:49:02.278Z,1021.09
2019-05-15T10:50:02.287Z,1021.12
2019-05-15T10:51:07.165Z,1021.12
2019-05-15T10:52:03.467Z,1021.08
2019-05-15T10:53:03.139Z,1021.12
2019-05-15T10:54:02.225Z,1021.09
2019-05-15T10:55:02.214Z,1021.09
2019-05-15T10:56:02.738Z,1021.07
2019-05-15T10:57:05.154Z,1021.10
2019-05-15T10:58:02.210Z,1021.10
2019-05-15T10:59:02.164Z,1021.05
2019-05-15T11:00:02.170Z,1021.05
2019-05-15T11:01:03.289Z,1021.03
2019-05-15T11:02:02.162Z,1021.01
2019-05-15T11:03:02.418Z,1021.01
2019-05-15T11:04:02.126Z,1020.91
2019-05-15T11:05:02.104Z,1020.95
2019-05-15T11:06:02.099Z,1020.94
2019-05-15T11:07:02.095Z,1020.97
2019-05-15T11:08:02.080Z,1020.99
2019-05-15T11:09:02.077Z,1020.94
2019-05-15T11:10:02.051Z,1020.88
2019-05-15T11:11:02.047Z,1020.95
2019-05-15T11:12:02.043Z,1020.90
2019-05-15T11:13:02.026Z,1020.89
2019-05-15T11:14:02.265Z,1020.94
2019-05-15T11:15:02.046Z,1020.86
2019-05-15T11:16:01.986Z,1020.81
2019-05-15T11:17:01.974Z,1020.78
2019-05-15T11:18:01.967Z,1020.78
2019-05-15T11:19:01.987Z,1020.77
2019-05-15T11:20:01.960Z,1020.75
2019-05-15T11:21:01.934Z,1020.74
2019-05-15T11:22:01.970Z,1020.75
2019-05-15T11:23:01.934Z,1020.71
2019-05-15T11:24:01.943Z,1020.69
2019-05-15T11:25:01.891Z,1020.72
2019-05-15T11:26:01.887Z,1020.71
2019-05-15T11:27:01.869Z,1020.77
2019-05-15T11:28:01.884Z,1020.77
2019-05-15T11:29:01.850Z,1020.68
2019-05-15T11:30:01.856Z,1020.66
2019-05-15T11:31:01.992Z,1020.70
2019-05-15T11:32:01.817Z,1020.60
2019-05-15T11:33:01.845Z,1020.61
2019-05-15T11:34:01.819Z,1020.67
2019-05-15T11:35:04.303Z,1020.66
2019-05-15T11:36:05.851Z,1020.61
2019-05-15T11:37:01.780Z,1020.59
2019-05-15T11:38:01.762Z,1020.53
2019-05-15T11:39:01.738Z,1020.51
2019-05-15T11:40:01.766Z,1020.54
2019-05-15T11:41:04.572Z,1020.62
2019-05-15T11:42:01.720Z,1020.70
2019-05-15T11:43:01.726Z,1020.68
2019-05-15T11:44:01.692Z,1020.65
2019-05-15T11:45:01.696Z,1020.59
2019-05-15T11:46:01.678Z,1020.57
2019-05-15T11:47:01.655Z,1020.55
2019-05-15T11:48:01.653Z,1020.51
2019-05-15T11:49:01.634Z,1020.51
2019-05-15T11:50:01.651Z,1020.51
2019-05-15T11:51:01.615Z,1020.53
2019-05-15T11:52:01.606Z,1020.43
2019-05-15T11:53:01.594Z,1020.40
2019-05-15T11:54:01.582Z,1020.43
2019-05-15T11:55:01.630Z,1020.41
2019-05-15T11:56:01.596Z,1020.43
2019-05-15T11:57:01.585Z,1020.47
2019-05-15T11:58:01.558Z,1020.42
2019-05-15T11:59:01.548Z,1020.41
2019-05-15T12:00:01.808Z,1020.39
2019-05-15T12:01:01.507Z,1020.38
2019-05-15T12:02:01.495Z,1020.32
2019-05-15T12:03:01.483Z,1020.32
2019-05-15T12:04:01.481Z,1020.32
2019-05-15T12:05:01.507Z,1020.41